sensor_id;sensor_type;location;lat;lon;timestamp;P1;durP1;ratioP1;P2;durP2;ratioP2
51248;SDS011;39642;47.556;18.728;2022-08-19T00:01:24;11.45;;;5.78;;
51248;SDS011;39642;47.556;18.728;2022-08-19T00:03:51;11.52;;;5.47;;
51248;SDS011;39642;47.556;18.728;2022-08-19T00:06:17;12.13;;;5.62;;
51248;SDS011;39642;47.556;18.728;2022-08-19T00:08:43;12.90;;;5.95;;
51248;SDS011;39642;47.556;18.728;2022-08-19T00:11:10;14.43;;;5.97;;
51248;SDS011;39642;47.556;18.728;2022-08-19T00:13:36;13.38;;;5.80;;
51248;SDS011;39642;47.556;18.728;2022-08-19T00:16:04;11.50;;;5.72;;
51248;SDS011;39642;47.556;18.728;2022-08-19T00:18:32;11.82;;;5.40;;
51248;SDS011;39642;47.556;18.728;2022-08-19T00:20:58;12.70;;;6.10;;
51248;SDS011;39642;47.556;18.728;2022-08-19T00:23:25;11.88;;;5.70;;
51248;SDS011;39642;47.556;18.728;2022-08-19T00:25:51;11.82;;;5.87;;
51248;SDS011;39642;47.556;18.728;2022-08-19T00:28:18;12.55;;;5.80;;
51248;SDS011;39642;47.556;18.728;2022-08-19T00:30:45;13.52;;;5.97;;
51248;SDS011;39642;47.556;18.728;2022-08-19T00:33:11;13.35;;;6.00;;
51248;SDS011;39642;47.556;18.728;2022-08-19T00:35:37;13.62;;;6.43;;
51248;SDS011;39642;47.556;18.728;2022-08-19T00:38:04;14.15;;;6.15;;
51248;SDS011;39642;47.556;18.728;2022-08-19T00:40:32;11.93;;;5.53;;
51248;SDS011;39642;47.556;18.728;2022-08-19T00:42:58;12.18;;;5.82;;
51248;SDS011;39642;47.556;18.728;2022-08-19T00:45:26;13.07;;;6.07;;
51248;SDS011;39642;47.556;18.728;2022-08-19T00:47:53;16.25;;;6.03;;
51248;SDS011;39642;47.556;18.728;2022-08-19T00:50:20;13.02;;;6.10;;
51248;SDS011;39642;47.556;18.728;2022-08-19T00:52:48;13.35;;;6.32;;
51248;SDS011;39642;47.556;18.728;2022-08-19T00:55:18;13.07;;;6.22;;
51248;SDS011;39642;47.556;18.728;2022-08-19T00:57:48;16.77;;;6.43;;
51248;SDS011;39642;47.556;18.728;2022-08-19T01:00:20;15.98;;;6.90;;
51248;SDS011;39642;47.556;18.728;2022-08-19T01:02:47;13.68;;;6.18;;
51248;SDS011;39642;47.556;18.728;2022-08-19T01:05:15;12.27;;;6.10;;
51248;SDS011;39642;47.556;18.728;2022-08-19T01:07:46;14.10;;;6.23;;
51248;SDS011;39642;47.556;18.728;2022-08-19T01:10:15;13.82;;;6.43;;
51248;SDS011;39642;47.556;18.728;2022-08-19T01:12:44;12.80;;;6.12;;
51248;SDS011;39642;47.556;18.728;2022-08-19T01:15:12;14.32;;;6.45;;
51248;SDS011;39642;47.556;18.728;2022-08-19T01:17:41;13.30;;;6.53;;
51248;SDS011;39642;47.556;18.728;2022-08-19T01:20:17;13.80;;;6.35;;
51248;SDS011;39642;47.556;18.728;2022-08-19T01:22:50;13.50;;;7.05;;
51248;SDS011;39642;47.556;18.728;2022-08-19T01:25:19;13.95;;;6.57;;
51248;SDS011;39642;47.556;18.728;2022-08-19T01:27:48;14.77;;;6.75;;
51248;SDS011;39642;47.556;18.728;2022-08-19T01:30:26;12.90;;;6.12;;
51248;SDS011;39642;47.556;18.728;2022-08-19T01:32:55;13.55;;;6.40;;
51248;SDS011;39642;47.556;18.728;2022-08-19T01:35:23;15.25;;;6.87;;
51248;SDS011;39642;47.556;18.728;2022-08-19T01:37:52;16.25;;;6.47;;
51248;SDS011;39642;47.556;18.728;2022-08-19T01:40:21;11.60;;;5.97;;
51248;SDS011;39642;47.556;18.728;2022-08-19T01:42:49;12.80;;;6.43;;
51248;SDS011;39642;47.556;18.728;2022-08-19T01:45:17;14.77;;;6.28;;
51248;SDS011;39642;47.556;18.728;2022-08-19T01:47:43;13.43;;;6.05;;
51248;SDS011;39642;47.556;18.728;2022-08-19T01:50:09;12.55;;;6.70;;
51248;SDS011;39642;47.556;18.728;2022-08-19T01:52:37;13.57;;;6.45;;
51248;SDS011;39642;47.556;18.728;2022-08-19T01:55:06;14.18;;;6.62;;
51248;SDS011;39642;47.556;18.728;2022-08-19T01:57:34;13.93;;;6.60;;
51248;SDS011;39642;47.556;18.728;2022-08-19T02:00:00;13.23;;;6.80;;
51248;SDS011;39642;47.556;18.728;2022-08-19T02:02:28;13.82;;;6.40;;
51248;SDS011;39642;47.556;18.728;2022-08-19T02:04:53;12.82;;;6.68;;
51248;SDS011;39642;47.556;18.728;2022-08-19T02:07:20;13.48;;;6.90;;
51248;SDS011;39642;47.556;18.728;2022-08-19T02:09:47;13.65;;;6.47;;
51248;SDS011;39642;47.556;18.728;2022-08-19T02:12:13;15.68;;;7.28;;
51248;SDS011;39642;47.556;18.728;2022-08-19T02:14:40;14.32;;;6.95;;
51248;SDS011;39642;47.556;18.728;2022-08-19T02:17:06;13.30;;;6.72;;
51248;SDS011;39642;47.556;18.728;2022-08-19T02:19:31;14.35;;;6.72;;
51248;SDS011;39642;47.556;18.728;2022-08-19T02:21:58;14.70;;;6.85;;
51248;SDS011;39642;47.556;18.728;2022-08-19T02:24:25;13.07;;;6.70;;
51248;SDS011;39642;47.556;18.728;2022-08-19T02:26:52;13.40;;;6.68;;
51248;SDS011;39642;47.556;18.728;2022-08-19T02:29:19;13.27;;;6.78;;
51248;SDS011;39642;47.556;18.728;2022-08-19T02:31:46;13.57;;;6.45;;
51248;SDS011;39642;47.556;18.728;2022-08-19T02:34:12;13.23;;;6.57;;
51248;SDS011;39642;47.556;18.728;2022-08-19T02:36:37;13.80;;;6.93;;
51248;SDS011;39642;47.556;18.728;2022-08-19T02:39:04;13.88;;;6.87;;
51248;SDS011;39642;47.556;18.728;2022-08-19T02:41:31;13.88;;;6.80;;
51248;SDS011;39642;47.556;18.728;2022-08-19T02:43:59;13.65;;;6.62;;
51248;SDS011;39642;47.556;18.728;2022-08-19T02:46:27;13.15;;;6.53;;
51248;SDS011;39642;47.556;18.728;2022-08-19T02:48:56;13.07;;;6.78;;
51248;SDS011;39642;47.556;18.728;2022-08-19T02:51:32;14.27;;;6.68;;
51248;SDS011;39642;47.556;18.728;2022-08-19T02:54:01;13.05;;;6.72;;
51248;SDS011;39642;47.556;18.728;2022-08-19T02:56:29;12.80;;;6.53;;
51248;SDS011;39642;47.556;18.728;2022-08-19T02:58:56;14.80;;;6.55;;
51248;SDS011;39642;47.556;18.728;2022-08-19T03:01:25;14.90;;;6.65;;
51248;SDS011;39642;47.556;18.728;2022-08-19T03:03:54;14.15;;;6.35;;
51248;SDS011;39642;47.556;18.728;2022-08-19T03:06:21;13.02;;;6.87;;
51248;SDS011;39642;47.556;18.728;2022-08-19T03:08:48;13.07;;;6.70;;
51248;SDS011;39642;47.556;18.728;2022-08-19T03:11:19;13.80;;;6.55;;
51248;SDS011;39642;47.556;18.728;2022-08-19T03:13:46;14.27;;;7.15;;
51248;SDS011;39642;47.556;18.728;2022-08-19T03:16:14;12.63;;;6.87;;
51248;SDS011;39642;47.556;18.728;2022-08-19T03:18:41;14.82;;;7.00;;
51248;SDS011;39642;47.556;18.728;2022-08-19T03:21:07;15.18;;;6.93;;
51248;SDS011;39642;47.556;18.728;2022-08-19T03:23:34;14.18;;;6.82;;
51248;SDS011;39642;47.556;18.728;2022-08-19T03:26:03;13.62;;;6.30;;
51248;SDS011;39642;47.556;18.728;2022-08-19T03:28:30;12.37;;;6.75;;
51248;SDS011;39642;47.556;18.728;2022-08-19T03:30:58;13.02;;;6.43;;
51248;SDS011;39642;47.556;18.728;2022-08-19T03:33:27;13.50;;;6.70;;
51248;SDS011;39642;47.556;18.728;2022-08-19T03:36:27;13.10;;;6.80;;
51248;SDS011;39642;47.556;18.728;2022-08-19T03:38:55;14.93;;;7.05;;
51248;SDS011;39642;47.556;18.728;2022-08-19T03:41:27;12.80;;;6.78;;
51248;SDS011;39642;47.556;18.728;2022-08-19T03:43:54;13.18;;;6.68;;
51248;SDS011;39642;47.556;18.728;2022-08-19T03:46:23;15.55;;;7.20;;
51248;SDS011;39642;47.556;18.728;2022-08-19T03:48:52;14.40;;;6.70;;
51248;SDS011;39642;47.556;18.728;2022-08-19T03:51:24;12.93;;;6.50;;
51248;SDS011;39642;47.556;18.728;2022-08-19T03:53:56;15.45;;;6.82;;
51248;SDS011;39642;47.556;18.728;2022-08-19T03:56:24;14.20;;;6.70;;
51248;SDS011;39642;47.556;18.728;2022-08-19T03:58:51;15.32;;;6.93;;
51248;SDS011;39642;47.556;18.728;2022-08-19T04:01:19;13.57;;;7.00;;
51248;SDS011;39642;47.556;18.728;2022-08-19T04:03:47;13.88;;;6.35;;
51248;SDS011;39642;47.556;18.728;2022-08-19T04:08:47;13.40;;;6.80;;
51248;SDS011;39642;47.556;18.728;2022-08-19T04:11:16;13.82;;;6.93;;
51248;SDS011;39642;47.556;18.728;2022-08-19T04:13:47;12.98;;;7.03;;
51248;SDS011;39642;47.556;18.728;2022-08-19T04:16:13;16.08;;;7.05;;
51248;SDS011;39642;47.556;18.728;2022-08-19T04:18:40;13.85;;;6.72;;
51248;SDS011;39642;47.556;18.728;2022-08-19T04:21:07;13.98;;;6.43;;
51248;SDS011;39642;47.556;18.728;2022-08-19T04:23:34;13.77;;;7.05;;
51248;SDS011;39642;47.556;18.728;2022-08-19T04:26:01;12.73;;;6.65;;
51248;SDS011;39642;47.556;18.728;2022-08-19T04:28:28;14.35;;;7.18;;
51248;SDS011;39642;47.556;18.728;2022-08-19T04:30:54;15.88;;;7.30;;
51248;SDS011;39642;47.556;18.728;2022-08-19T04:33:22;13.55;;;6.70;;
51248;SDS011;39642;47.556;18.728;2022-08-19T04:35:50;13.30;;;6.90;;
51248;SDS011;39642;47.556;18.728;2022-08-19T04:38:18;15.00;;;6.78;;
51248;SDS011;39642;47.556;18.728;2022-08-19T04:40:47;13.62;;;6.87;;
51248;SDS011;39642;47.556;18.728;2022-08-19T04:43:33;15.63;;;6.93;;
51248;SDS011;39642;47.556;18.728;2022-08-19T04:46:06;14.75;;;7.18;;
51248;SDS011;39642;47.556;18.728;2022-08-19T04:48:36;13.07;;;6.35;;
51248;SDS011;39642;47.556;18.728;2022-08-19T04:51:05;14.68;;;6.80;;
51248;SDS011;39642;47.556;18.728;2022-08-19T04:53:35;14.63;;;6.95;;
51248;SDS011;39642;47.556;18.728;2022-08-19T04:56:05;13.90;;;6.72;;
51248;SDS011;39642;47.556;18.728;2022-08-19T04:58:41;13.30;;;6.87;;
51248;SDS011;39642;47.556;18.728;2022-08-19T05:01:09;14.63;;;6.97;;
51248;SDS011;39642;47.556;18.728;2022-08-19T05:03:38;12.93;;;6.85;;
51248;SDS011;39642;47.556;18.728;2022-08-19T05:06:06;15.32;;;7.22;;
51248;SDS011;39642;47.556;18.728;2022-08-19T05:08:33;13.93;;;6.53;;
51248;SDS011;39642;47.556;18.728;2022-08-19T05:11:01;14.77;;;7.03;;
51248;SDS011;39642;47.556;18.728;2022-08-19T05:16:00;14.20;;;6.72;;
51248;SDS011;39642;47.556;18.728;2022-08-19T05:18:26;13.13;;;6.57;;
51248;SDS011;39642;47.556;18.728;2022-08-19T05:21:11;14.90;;;6.75;;
51248;SDS011;39642;47.556;18.728;2022-08-19T05:23:57;15.32;;;6.90;;
51248;SDS011;39642;47.556;18.728;2022-08-19T05:26:24;15.63;;;6.68;;
51248;SDS011;39642;47.556;18.728;2022-08-19T05:28:51;14.00;;;6.47;;
51248;SDS011;39642;47.556;18.728;2022-08-19T05:31:18;15.43;;;7.10;;
51248;SDS011;39642;47.556;18.728;2022-08-19T05:33:44;16.15;;;6.75;;
51248;SDS011;39642;47.556;18.728;2022-08-19T05:36:10;15.13;;;6.78;;
51248;SDS011;39642;47.556;18.728;2022-08-19T05:38:37;14.10;;;6.87;;
51248;SDS011;39642;47.556;18.728;2022-08-19T05:41:09;13.30;;;6.78;;
51248;SDS011;39642;47.556;18.728;2022-08-19T05:43:37;14.90;;;7.03;;
51248;SDS011;39642;47.556;18.728;2022-08-19T05:46:06;13.65;;;6.65;;
51248;SDS011;39642;47.556;18.728;2022-08-19T05:48:34;13.62;;;6.93;;
51248;SDS011;39642;47.556;18.728;2022-08-19T05:51:04;14.20;;;6.85;;
51248;SDS011;39642;47.556;18.728;2022-08-19T05:53:34;13.90;;;7.18;;
51248;SDS011;39642;47.556;18.728;2022-08-19T05:56:08;16.02;;;6.80;;
51248;SDS011;39642;47.556;18.728;2022-08-19T05:58:38;13.65;;;6.93;;
51248;SDS011;39642;47.556;18.728;2022-08-19T06:01:09;14.40;;;7.00;;
51248;SDS011;39642;47.556;18.728;2022-08-19T06:03:37;15.70;;;7.05;;
51248;SDS011;39642;47.556;18.728;2022-08-19T06:06:05;17.02;;;6.93;;
51248;SDS011;39642;47.556;18.728;2022-08-19T06:08:33;13.95;;;6.80;;
51248;SDS011;39642;47.556;18.728;2022-08-19T06:11:15;15.30;;;7.03;;
51248;SDS011;39642;47.556;18.728;2022-08-19T06:13:41;17.17;;;7.30;;
51248;SDS011;39642;47.556;18.728;2022-08-19T06:16:08;21.42;;;7.90;;
51248;SDS011;39642;47.556;18.728;2022-08-19T06:18:34;19.05;;;7.60;;
51248;SDS011;39642;47.556;18.728;2022-08-19T06:21:00;18.75;;;8.02;;
51248;SDS011;39642;47.556;18.728;2022-08-19T06:23:29;16.33;;;7.37;;
51248;SDS011;39642;47.556;18.728;2022-08-19T06:25:56;16.37;;;7.45;;
51248;SDS011;39642;47.556;18.728;2022-08-19T06:28:22;14.25;;;7.05;;
51248;SDS011;39642;47.556;18.728;2022-08-19T06:30:49;18.40;;;8.32;;
51248;SDS011;39642;47.556;18.728;2022-08-19T06:33:16;17.17;;;7.20;;
51248;SDS011;39642;47.556;18.728;2022-08-19T06:35:42;19.02;;;7.32;;
51248;SDS011;39642;47.556;18.728;2022-08-19T06:38:08;16.77;;;8.18;;
51248;SDS011;39642;47.556;18.728;2022-08-19T06:40:35;14.75;;;6.75;;
51248;SDS011;39642;47.556;18.728;2022-08-19T06:43:03;16.67;;;7.75;;
51248;SDS011;39642;47.556;18.728;2022-08-19T06:45:29;17.12;;;7.47;;
51248;SDS011;39642;47.556;18.728;2022-08-19T06:47:55;15.40;;;8.02;;
51248;SDS011;39642;47.556;18.728;2022-08-19T06:50:22;16.90;;;8.05;;
51248;SDS011;39642;47.556;18.728;2022-08-19T06:52:49;12.37;;;6.20;;
51248;SDS011;39642;47.556;18.728;2022-08-19T06:55:15;15.25;;;6.32;;
51248;SDS011;39642;47.556;18.728;2022-08-19T06:57:41;14.70;;;6.45;;
51248;SDS011;39642;47.556;18.728;2022-08-19T07:00:08;17.73;;;7.80;;
51248;SDS011;39642;47.556;18.728;2022-08-19T07:05:07;13.48;;;6.80;;
51248;SDS011;39642;47.556;18.728;2022-08-19T07:07:33;18.27;;;6.55;;
51248;SDS011;39642;47.556;18.728;2022-08-19T07:10:00;16.62;;;6.18;;
51248;SDS011;39642;47.556;18.728;2022-08-19T07:12:29;13.80;;;6.40;;
51248;SDS011;39642;47.556;18.728;2022-08-19T07:14:58;17.23;;;7.28;;
51248;SDS011;39642;47.556;18.728;2022-08-19T07:17:24;19.85;;;7.47;;
51248;SDS011;39642;47.556;18.728;2022-08-19T07:19:50;15.60;;;7.47;;
51248;SDS011;39642;47.556;18.728;2022-08-19T07:22:16;17.95;;;7.30;;
51248;SDS011;39642;47.556;18.728;2022-08-19T07:24:43;15.82;;;7.10;;
51248;SDS011;39642;47.556;18.728;2022-08-19T07:27:09;17.80;;;6.78;;
51248;SDS011;39642;47.556;18.728;2022-08-19T07:29:35;17.15;;;6.87;;
51248;SDS011;39642;47.556;18.728;2022-08-19T07:32:02;14.32;;;6.57;;
51248;SDS011;39642;47.556;18.728;2022-08-19T07:34:29;16.00;;;7.10;;
51248;SDS011;39642;47.556;18.728;2022-08-19T07:36:59;15.20;;;6.65;;
51248;SDS011;39642;47.556;18.728;2022-08-19T07:39:27;19.35;;;7.07;;
51248;SDS011;39642;47.556;18.728;2022-08-19T07:41:55;18.95;;;6.93;;
51248;SDS011;39642;47.556;18.728;2022-08-19T07:44:23;21.58;;;6.82;;
51248;SDS011;39642;47.556;18.728;2022-08-19T07:46:53;18.62;;;7.47;;
51248;SDS011;39642;47.556;18.728;2022-08-19T07:49:21;13.65;;;6.80;;
51248;SDS011;39642;47.556;18.728;2022-08-19T07:51:49;16.77;;;7.10;;
51248;SDS011;39642;47.556;18.728;2022-08-19T07:56:46;14.93;;;6.28;;
51248;SDS011;39642;47.556;18.728;2022-08-19T07:59:12;15.27;;;6.10;;
51248;SDS011;39642;47.556;18.728;2022-08-19T08:01:39;13.15;;;6.65;;
51248;SDS011;39642;47.556;18.728;2022-08-19T08:04:05;15.25;;;6.93;;
51248;SDS011;39642;47.556;18.728;2022-08-19T08:06:51;17.60;;;7.18;;
51248;SDS011;39642;47.556;18.728;2022-08-19T08:09:38;15.77;;;7.40;;
51248;SDS011;39642;47.556;18.728;2022-08-19T08:12:06;16.15;;;7.68;;
51248;SDS011;39642;47.556;18.728;2022-08-19T08:14:47;16.23;;;7.10;;
51248;SDS011;39642;47.556;18.728;2022-08-19T08:17:16;15.05;;;7.47;;
51248;SDS011;39642;47.556;18.728;2022-08-19T08:19:45;14.57;;;6.90;;
51248;SDS011;39642;47.556;18.728;2022-08-19T08:22:14;14.10;;;7.00;;
51248;SDS011;39642;47.556;18.728;2022-08-19T08:25:04;14.73;;;7.12;;
51248;SDS011;39642;47.556;18.728;2022-08-19T08:27:31;14.85;;;7.43;;
51248;SDS011;39642;47.556;18.728;2022-08-19T08:30:02;14.50;;;7.30;;
51248;SDS011;39642;47.556;18.728;2022-08-19T08:32:30;15.65;;;7.05;;
51248;SDS011;39642;47.556;18.728;2022-08-19T08:34:56;14.48;;;7.07;;
51248;SDS011;39642;47.556;18.728;2022-08-19T08:37:22;16.17;;;6.70;;
51248;SDS011;39642;47.556;18.728;2022-08-19T08:39:48;17.42;;;7.43;;
51248;SDS011;39642;47.556;18.728;2022-08-19T08:42:23;14.75;;;6.97;;
51248;SDS011;39642;47.556;18.728;2022-08-19T08:44:59;14.63;;;7.07;;
51248;SDS011;39642;47.556;18.728;2022-08-19T08:47:29;15.45;;;6.80;;
51248;SDS011;39642;47.556;18.728;2022-08-19T08:52:45;14.15;;;6.75;;
51248;SDS011;39642;47.556;18.728;2022-08-19T08:55:21;14.25;;;6.40;;
51248;SDS011;39642;47.556;18.728;2022-08-19T08:57:57;13.05;;;6.20;;
51248;SDS011;39642;47.556;18.728;2022-08-19T09:00:25;13.68;;;6.00;;
51248;SDS011;39642;47.556;18.728;2022-08-19T09:02:54;13.73;;;5.57;;
51248;SDS011;39642;47.556;18.728;2022-08-19T09:05:21;13.05;;;5.90;;
51248;SDS011;39642;47.556;18.728;2022-08-19T09:10:58;14.35;;;6.03;;
51248;SDS011;39642;47.556;18.728;2022-08-19T09:13:44;13.80;;;6.22;;
51248;SDS011;39642;47.556;18.728;2022-08-19T09:16:28;14.38;;;5.87;;
51248;SDS011;39642;47.556;18.728;2022-08-19T09:18:57;12.88;;;5.68;;
51248;SDS011;39642;47.556;18.728;2022-08-19T09:21:27;13.55;;;6.60;;
51248;SDS011;39642;47.556;18.728;2022-08-19T09:23:53;12.57;;;5.93;;
51248;SDS011;39642;47.556;18.728;2022-08-19T09:26:21;13.60;;;6.20;;
51248;SDS011;39642;47.556;18.728;2022-08-19T09:28:48;12.75;;;6.00;;
51248;SDS011;39642;47.556;18.728;2022-08-19T09:31:17;12.55;;;6.18;;
51248;SDS011;39642;47.556;18.728;2022-08-19T09:33:48;13.25;;;5.80;;
51248;SDS011;39642;47.556;18.728;2022-08-19T09:36:14;15.10;;;6.20;;
51248;SDS011;39642;47.556;18.728;2022-08-19T09:38:42;12.85;;;5.57;;
51248;SDS011;39642;47.556;18.728;2022-08-19T09:41:10;12.85;;;5.53;;
51248;SDS011;39642;47.556;18.728;2022-08-19T09:43:39;13.80;;;5.80;;
51248;SDS011;39642;47.556;18.728;2022-08-19T09:46:08;13.27;;;6.00;;
51248;SDS011;39642;47.556;18.728;2022-08-19T09:48:35;11.77;;;5.47;;
51248;SDS011;39642;47.556;18.728;2022-08-19T09:51:11;12.48;;;5.80;;
51248;SDS011;39642;47.556;18.728;2022-08-19T09:53:41;14.15;;;5.80;;
51248;SDS011;39642;47.556;18.728;2022-08-19T09:56:09;14.70;;;5.87;;
51248;SDS011;39642;47.556;18.728;2022-08-19T09:58:36;11.70;;;5.37;;
51248;SDS011;39642;47.556;18.728;2022-08-19T10:01:03;15.55;;;5.80;;
51248;SDS011;39642;47.556;18.728;2022-08-19T10:03:30;13.32;;;5.72;;
51248;SDS011;39642;47.556;18.728;2022-08-19T10:05:58;13.18;;;5.87;;
51248;SDS011;39642;47.556;18.728;2022-08-19T10:08:30;11.50;;;5.30;;
51248;SDS011;39642;47.556;18.728;2022-08-19T10:10:58;14.07;;;5.37;;
51248;SDS011;39642;47.556;18.728;2022-08-19T10:13:26;12.50;;;5.62;;
51248;SDS011;39642;47.556;18.728;2022-08-19T10:15:54;15.00;;;6.03;;
51248;SDS011;39642;47.556;18.728;2022-08-19T10:18:22;17.80;;;5.68;;
51248;SDS011;39642;47.556;18.728;2022-08-19T10:20:50;14.63;;;5.75;;
51248;SDS011;39642;47.556;18.728;2022-08-19T10:23:18;11.93;;;5.43;;
51248;SDS011;39642;47.556;18.728;2022-08-19T10:25:46;13.15;;;5.85;;
51248;SDS011;39642;47.556;18.728;2022-08-19T10:28:13;14.75;;;6.15;;
51248;SDS011;39642;47.556;18.728;2022-08-19T10:30:39;13.18;;;5.80;;
51248;SDS011;39642;47.556;18.728;2022-08-19T10:33:05;16.27;;;5.45;;
51248;SDS011;39642;47.556;18.728;2022-08-19T10:35:32;12.35;;;5.80;;
51248;SDS011;39642;47.556;18.728;2022-08-19T10:37:58;16.30;;;5.62;;
51248;SDS011;39642;47.556;18.728;2022-08-19T10:40:25;12.75;;;5.65;;
51248;SDS011;39642;47.556;18.728;2022-08-19T10:42:53;14.57;;;5.80;;
51248;SDS011;39642;47.556;18.728;2022-08-19T10:45:21;13.07;;;5.55;;
51248;SDS011;39642;47.556;18.728;2022-08-19T10:47:54;12.75;;;5.80;;
51248;SDS011;39642;47.556;18.728;2022-08-19T10:50:21;16.08;;;5.72;;
51248;SDS011;39642;47.556;18.728;2022-08-19T10:53:06;16.50;;;5.60;;
51248;SDS011;39642;47.556;18.728;2022-08-19T10:55:36;12.40;;;5.70;;
51248;SDS011;39642;47.556;18.728;2022-08-19T10:58:21;14.13;;;5.82;;
51248;SDS011;39642;47.556;18.728;2022-08-19T11:00:53;13.98;;;5.30;;
51248;SDS011;39642;47.556;18.728;2022-08-19T11:03:20;11.70;;;5.20;;
51248;SDS011;39642;47.556;18.728;2022-08-19T11:05:51;13.25;;;5.60;;
51248;SDS011;39642;47.556;18.728;2022-08-19T11:08:22;12.80;;;5.65;;
51248;SDS011;39642;47.556;18.728;2022-08-19T11:10:53;14.20;;;6.07;;
51248;SDS011;39642;47.556;18.728;2022-08-19T11:13:22;13.48;;;5.70;;
51248;SDS011;39642;47.556;18.728;2022-08-19T11:15:59;13.77;;;5.68;;
51248;SDS011;39642;47.556;18.728;2022-08-19T11:18:27;17.23;;;6.28;;
51248;SDS011;39642;47.556;18.728;2022-08-19T11:20:53;12.70;;;5.43;;
51248;SDS011;39642;47.556;18.728;2022-08-19T11:23:19;12.82;;;5.65;;
51248;SDS011;39642;47.556;18.728;2022-08-19T11:25:46;14.48;;;5.80;;
51248;SDS011;39642;47.556;18.728;2022-08-19T11:28:12;11.60;;;5.05;;
51248;SDS011;39642;47.556;18.728;2022-08-19T11:30:38;14.05;;;5.57;;
51248;SDS011;39642;47.556;18.728;2022-08-19T11:33:04;13.30;;;5.40;;
51248;SDS011;39642;47.556;18.728;2022-08-19T11:35:30;12.15;;;5.35;;
51248;SDS011;39642;47.556;18.728;2022-08-19T11:37:56;11.98;;;5.60;;
51248;SDS011;39642;47.556;18.728;2022-08-19T11:40:26;13.95;;;6.15;;
51248;SDS011;39642;47.556;18.728;2022-08-19T11:42:52;13.48;;;5.18;;
51248;SDS011;39642;47.556;18.728;2022-08-19T11:45:25;12.27;;;5.50;;
51248;SDS011;39642;47.556;18.728;2022-08-19T11:47:52;12.75;;;5.62;;
51248;SDS011;39642;47.556;18.728;2022-08-19T11:50:19;12.82;;;5.53;;
51248;SDS011;39642;47.556;18.728;2022-08-19T11:52:45;13.32;;;5.70;;
51248;SDS011;39642;47.556;18.728;2022-08-19T11:55:11;13.48;;;5.72;;
51248;SDS011;39642;47.556;18.728;2022-08-19T11:57:39;14.63;;;5.62;;
51248;SDS011;39642;47.556;18.728;2022-08-19T12:00:06;14.07;;;5.68;;
51248;SDS011;39642;47.556;18.728;2022-08-19T12:02:34;13.65;;;5.70;;
51248;SDS011;39642;47.556;18.728;2022-08-19T12:04:59;13.98;;;5.97;;
51248;SDS011;39642;47.556;18.728;2022-08-19T12:07:28;12.37;;;5.85;;
51248;SDS011;39642;47.556;18.728;2022-08-19T12:09:57;12.85;;;6.30;;
51248;SDS011;39642;47.556;18.728;2022-08-19T12:12:22;15.82;;;6.12;;
51248;SDS011;39642;47.556;18.728;2022-08-19T12:14:50;16.08;;;6.32;;
51248;SDS011;39642;47.556;18.728;2022-08-19T12:17:25;13.98;;;6.25;;
51248;SDS011;39642;47.556;18.728;2022-08-19T12:19:52;14.95;;;6.35;;
51248;SDS011;39642;47.556;18.728;2022-08-19T12:22:19;12.55;;;6.55;;
51248;SDS011;39642;47.556;18.728;2022-08-19T12:24:46;16.50;;;6.57;;
51248;SDS011;39642;47.556;18.728;2022-08-19T12:27:13;14.75;;;6.75;;
51248;SDS011;39642;47.556;18.728;2022-08-19T12:29:39;20.45;;;7.40;;
51248;SDS011;39642;47.556;18.728;2022-08-19T12:32:05;15.07;;;6.00;;
51248;SDS011;39642;47.556;18.728;2022-08-19T12:34:31;15.68;;;6.80;;
51248;SDS011;39642;47.556;18.728;2022-08-19T12:36:58;13.35;;;6.82;;
51248;SDS011;39642;47.556;18.728;2022-08-19T12:39:27;15.68;;;7.32;;
51248;SDS011;39642;47.556;18.728;2022-08-19T12:41:53;21.35;;;9.05;;
51248;SDS011;39642;47.556;18.728;2022-08-19T12:44:19;15.68;;;6.90;;
51248;SDS011;39642;47.556;18.728;2022-08-19T12:46:45;15.18;;;7.30;;
51248;SDS011;39642;47.556;18.728;2022-08-19T12:49:12;13.52;;;6.78;;
51248;SDS011;39642;47.556;18.728;2022-08-19T12:51:38;13.65;;;6.35;;
51248;SDS011;39642;47.556;18.728;2022-08-19T12:54:04;13.15;;;6.75;;
51248;SDS011;39642;47.556;18.728;2022-08-19T12:56:30;12.35;;;6.18;;
51248;SDS011;39642;47.556;18.728;2022-08-19T12:58:56;13.75;;;6.35;;
51248;SDS011;39642;47.556;18.728;2022-08-19T13:01:22;13.43;;;7.37;;
51248;SDS011;39642;47.556;18.728;2022-08-19T13:03:49;15.27;;;7.85;;
51248;SDS011;39642;47.556;18.728;2022-08-19T13:06:17;16.05;;;7.78;;
51248;SDS011;39642;47.556;18.728;2022-08-19T13:08:43;16.98;;;7.65;;
51248;SDS011;39642;47.556;18.728;2022-08-19T13:11:13;16.00;;;7.50;;
51248;SDS011;39642;47.556;18.728;2022-08-19T13:13:44;16.98;;;7.87;;
51248;SDS011;39642;47.556;18.728;2022-08-19T13:16:11;14.30;;;7.82;;
51248;SDS011;39642;47.556;18.728;2022-08-19T13:18:39;18.67;;;7.55;;
51248;SDS011;39642;47.556;18.728;2022-08-19T13:21:07;14.13;;;7.12;;
51248;SDS011;39642;47.556;18.728;2022-08-19T13:23:34;17.58;;;6.75;;
51248;SDS011;39642;47.556;18.728;2022-08-19T13:26:03;13.77;;;7.40;;
51248;SDS011;39642;47.556;18.728;2022-08-19T13:28:31;14.07;;;5.65;;
51248;SDS011;39642;47.556;18.728;2022-08-19T13:31:18;24.17;;;7.55;;
51248;SDS011;39642;47.556;18.728;2022-08-19T13:34:04;21.05;;;7.22;;
51248;SDS011;39642;47.556;18.728;2022-08-19T13:36:31;20.52;;;6.20;;
51248;SDS011;39642;47.556;18.728;2022-08-19T13:39:00;16.23;;;6.20;;
51248;SDS011;39642;47.556;18.728;2022-08-19T13:41:26;18.67;;;6.20;;
51248;SDS011;39642;47.556;18.728;2022-08-19T13:43:53;20.35;;;6.93;;
51248;SDS011;39642;47.556;18.728;2022-08-19T13:46:19;16.70;;;5.60;;
51248;SDS011;39642;47.556;18.728;2022-08-19T13:48:46;18.75;;;5.72;;
51248;SDS011;39642;47.556;18.728;2022-08-19T13:51:14;17.33;;;5.70;;
51248;SDS011;39642;47.556;18.728;2022-08-19T13:53:42;18.42;;;5.68;;
51248;SDS011;39642;47.556;18.728;2022-08-19T13:56:10;20.25;;;5.40;;
51248;SDS011;39642;47.556;18.728;2022-08-19T13:58:37;15.40;;;4.93;;
51248;SDS011;39642;47.556;18.728;2022-08-19T14:01:03;20.83;;;5.25;;
51248;SDS011;39642;47.556;18.728;2022-08-19T14:03:30;19.20;;;5.28;;
51248;SDS011;39642;47.556;18.728;2022-08-19T14:06:00;16.15;;;5.68;;
51248;SDS011;39642;47.556;18.728;2022-08-19T14:08:27;19.65;;;5.03;;
51248;SDS011;39642;47.556;18.728;2022-08-19T14:10:53;16.95;;;4.97;;
51248;SDS011;39642;47.556;18.728;2022-08-19T14:13:21;19.10;;;4.93;;
51248;SDS011;39642;47.556;18.728;2022-08-19T14:15:48;19.05;;;4.80;;
51248;SDS011;39642;47.556;18.728;2022-08-19T14:18:15;18.58;;;4.45;;
51248;SDS011;39642;47.556;18.728;2022-08-19T14:20:42;21.87;;;5.60;;
51248;SDS011;39642;47.556;18.728;2022-08-19T14:23:09;16.17;;;5.03;;
51248;SDS011;39642;47.556;18.728;2022-08-19T14:25:36;13.62;;;4.07;;
51248;SDS011;39642;47.556;18.728;2022-08-19T14:28:02;15.77;;;4.12;;
51248;SDS011;39642;47.556;18.728;2022-08-19T14:30:29;18.30;;;3.95;;
51248;SDS011;39642;47.556;18.728;2022-08-19T14:32:58;18.55;;;3.75;;
51248;SDS011;39642;47.556;18.728;2022-08-19T14:35:26;13.38;;;3.80;;
51248;SDS011;39642;47.556;18.728;2022-08-19T14:37:53;14.75;;;3.53;;
51248;SDS011;39642;47.556;18.728;2022-08-19T14:40:21;17.77;;;3.50;;
51248;SDS011;39642;47.556;18.728;2022-08-19T14:42:52;16.35;;;3.83;;
51248;SDS011;39642;47.556;18.728;2022-08-19T14:45:21;18.05;;;4.00;;